AirNav   Everest Fuels
 
 1489 users online  

SN29 Rucker Airport
Burdett, Kansas, USA

GOING TO BURDETT?


FAA INFORMATION EFFECTIVE 15 JULY 2021

Location

FAA Identifier: SN29
Lat/Long: 38-11-09.8450N 099-32-07.8594W
38-11.164083N 099-32.130990W
38.1860681,-99.5355165
(estimated)
Elevation: 2151 ft. / 656 m (estimated)
Time zone: UTC -5 (UTC -6 during Standard Time)
Zip code: 67523

Airport Operations

Airport use: Private use. Permission required prior to landing
Activation date: 01/1947
Control tower: no
ARTCC: KANSAS CITY CENTER
FSS: WICHITA FLIGHT SERVICE STATION
Attendance: SR-SS
Wind indicator: yes
Segmented circle: no

Airport Communications

UNICOM: 122.8

Nearby radio navigation aids

VOR radial/distance  VOR name  Freq  Var
DDCr040/30.0DODGE CITY VORTAC108.2008E

Airport Services

Fuel available: 100 JET-A
100:FUEL BY PRIOR REQUEST ONLY.
Airframe service: MAJOR
Powerplant service: MAJOR

Runway Information

Runway 17/35

Dimensions: 2460 x 100 ft. / 750 x 30 m
Surface: turf
RUNWAY 17  RUNWAY 35
Latitude: 38-11.357333N38-10.952167N
Longitude: 099-32.091333W099-32.081833W
Elevation: 2120.0 ft.2148.0 ft.
Traffic pattern: leftleft
Runway heading: 179 true359 true

Runway 3/21

Dimensions: 2361 x 100 ft. / 720 x 30 m
Surface: turf
RUNWAY 3  RUNWAY 21
Latitude: 38-11.009500N38-11.334167N
Longitude: 099-32.361500W099-32.090167W
Elevation: 2140.0 ft.2124.0 ft.
Traffic pattern: leftleft
Runway heading: 033 true213 true

Runway 16/34

Dimensions: 2329 x 75 ft. / 710 x 23 m
Surface: turf
RUNWAY 16  RUNWAY 34
Latitude: 38-11.354167N38-10.978000N
Longitude: 099-32.129833W099-32.033667W
Elevation: 2119.0 ft.2151.0 ft.
Traffic pattern: leftleft
Runway heading: 169 true349 true

Airport Ownership and Management from official FAA records

Ownership: Privately-owned
Owner: CARY RUCKER
BOX 225
BURDETT, KS 67523
Phone 620-525-6712
Manager: CARY RUCKER
BOX 225
BURDETT, KS 67523
Phone 620-525-6712

Airport Operational Statistics

Aircraft based on the field: 8
Single engine airplanes: 6
Jet airplanes: 2
    
Aircraft operations: 1/year
100% local general aviation

Additional Remarks

CATTLE ON FIELD MOST OF YEAR.
FOR CD CTC KANSAS CITY ARTCC AT 913-254-8508.

Instrument Procedures

There are no published instrument procedures at SN29.

Some nearby airports with instrument procedures:

K79 - Jetmore Municipal Airport (21 nm SW)
KLQR - Larned-Pawnee County Airport (21 nm E)
KDDC - Dodge City Regional Airport (33 nm SW)
KGBD - Great Bend Municipal Airport (33 nm E)
KHYS - Hays Regional Airport (41 nm N)
 
Loc | Ops | Rwys | IFR | FBO | Links
Com | Nav | Svcs | Stats | Notes

AirBoss

 
Area around SN29 (Rucker Airport)
 
Road maps at: MapQuest Bing Google
 
Aerial photo
No photo
 
Sectional chart

 
Airport distance calculator
Flying to Rucker Airport? Find the distance to fly.

From to SN29

Sunrise and sunset
Times for 05-Aug-2021
 Local
(UTC-5)
 Zulu
(UTC)
Morning civil twilight06:1611:16
Sunrise06:4511:45
Sunset20:4301:43
Evening civil twilight21:1202:12

Current date and time
Zulu (UTC)  05-Aug-2021 14:16:14
Local (UTC-5)  05-Aug-2021 09:16:14
 
METAR
KDDC 
32nm SW 
051352Z AUTO 21006KT 5SM HZ CLR 22/16 A3012 RMK AO2 SLP171 T02220156
KGBD 
33nm E 
051356Z AUTO 21005KT 10SM CLR 22/17 A3010 RMK AO2 SLP175 T02220172
KHYS 
42nm N 
051356Z AUTO 21009KT 10SM CLR 23/16 A3009 RMK AO2 SLP173 T02330156
KPTT 
47nm SE 
051355Z AUTO 21003KT 10SM CLR 22/16 A3012 RMK AO2 T02240160
TAF
KDDC 
32nm SW 
051157Z 0512/0612 22008KT P6SM SCT200 TEMPO 0512/0515 5SM HZ FM051700 21012G18KT P6SM SKC FM060000 15009KT P6SM SKC
KGBD 
33nm E 
051126Z 0512/0612 23005KT P6SM FEW035 BKN100 FM051600 22008KT P6SM FEW060 SCT200 FM052300 18010KT P6SM FEW090 FEW250
NOTAMs
Click for the latest NOTAMs
NOTAMs are issued by the DoD/FAA and will open in a separate window not controlled by AirNav.

 

 
 

Would you like to see your business listed on this page?

 If your business provides an interesting product or service to pilots, flight crews, aircraft, or users of the Rucker Airport, you should consider listing it here.  To start the listing process, click on the button below
 
Add a business
 

Other Pages about Rucker Airport

Update a link
 
Copyright © AirNav, LLC. All rights reserved. Privacy Policy  Contact